KTMBKIMM

Guest
Details From KTMB - Kendall Tamiami Executive
To KIMM - Immokalee
Flight Number -
Tags generated
Created
Modified
Stats Distance 70 nm / 130 km
Max Altitude 4,700 ft / 1,433 m
Waypoints 3
Social Downloads 11
Likes 0
Share VATSIM

Download

Looking for another format? Having issues loading an existing format? Contact us
Advertisement - Login to hide

Notes

Basic altitude profile: - Ascent Rate: 2500ft/min - Ascent Speed: 250kts - Cruise Altitude: 35000ft - Cruise Speed: 420kts - Descent Rate: 1500ft/min - Descent Speed: 250kts Options: - Use NATs: yes - Use PACOTS: yes - Use low airways: yes - Use high airways: yes

Route

KTMB SWAGS KIMM

ID Type Via Altitude Latitude Longitude Leg Dist Tot Dist Heading (true) Name
O KTMB APT - 0 ft / 0 m 25.64782˚ -80.43349˚ - 0 nm - Kendall Tamiami Executive
SWAGS FIX - 4,700 ft / 1,433 m 26.17697˚ -81.09997˚ 48 nm 48 nm 312° / 311° -
O KIMM APT - 0 ft / 0 m 26.43317˚ -81.40103˚ 22 nm 70 nm 314° / 313° Immokalee

Altitude Profile

Advertisement - Login to hide

KTMB

Details ICAO KTMB (TMB)
Name Kendall Tamiami Executive
Region United States
Timezone America/New_York (UTC-5.0)
Stats Elevation 8 ft / 2 m (AMSL)
Location 25.647825° -80.433494°
Runways 3
Magnetic Variation 6.530° W

METAR

KTMB 160653Z AUTO 00000KT 10SM CLR 14/13 A3017 RMK AO2 SLP215 T01440133

Decode

TAF

KTMB 160539Z 1606/1706 VRB05KT P6SM SCT250 FM161500 04008KT P6SM FEW250 FM161800 07009KT P6SM SCT035 SCT250 FM170100 06005KT P6SM FEW030

Decode

Departure Runways

ID Width Length Bearing (true) Bearing (mag) Surface Threshold Offset Overrun Length
09L 150 ft / 46 m 4,994 ft / 1,522 m 87.32° 93.85° Asphalt 0 ft / 0 m 0 ft / 0 m
09R 150 ft / 46 m 6,005 ft / 1,830 m 87.31° 93.84° Asphalt 0 ft / 0 m 0 ft / 0 m
13 150 ft / 46 m 4,003 ft / 1,220 m 127.50° 134.03° Asphalt 0 ft / 0 m 0 ft / 0 m
27L 150 ft / 46 m 6,005 ft / 1,830 m 267.31° 273.84° Asphalt 0 ft / 0 m 0 ft / 0 m
27R 150 ft / 46 m 4,994 ft / 1,522 m 267.32° 273.85° Asphalt 0 ft / 0 m 0 ft / 0 m
31 150 ft / 46 m 4,003 ft / 1,220 m 307.50° 314.03° Asphalt 0 ft / 0 m 0 ft / 0 m

KIMM

Details ICAO KIMM
Name Immokalee
Region United States
Timezone America/New_York (UTC-5.0)
Stats Elevation 36 ft / 11 m (AMSL)
Location 26.433170° -81.401027°
Runways 3
Magnetic Variation 6.047° W

METAR

KIMM 160715Z AUTO 00000KT 10SM CLR 12/11 A3018 RMK AO2

Decode

TAF

Not found

Destination Runways

ID Width Length Bearing (true) Bearing (mag) Surface Threshold Offset Overrun Length
04 150 ft / 46 m 5,011 ft / 1,527 m 36.20° 42.25° Asphalt 0 ft / 0 m 0 ft / 0 m
09 150 ft / 46 m 4,992 ft / 1,522 m 88.01° 94.06° Asphalt 0 ft / 0 m 0 ft / 0 m
18 150 ft / 46 m 5,019 ft / 1,530 m 178.03° 184.08° Asphalt 0 ft / 0 m 0 ft / 0 m
22 150 ft / 46 m 5,011 ft / 1,527 m 216.20° 222.25° Asphalt 0 ft / 0 m 0 ft / 0 m
27 150 ft / 46 m 4,992 ft / 1,522 m 268.01° 274.06° Asphalt 0 ft / 0 m 0 ft / 0 m
36 150 ft / 46 m 5,019 ft / 1,530 m 358.03° 4.08° Asphalt 990 ft / 302 m 0 ft / 0 m

Popular Alternatives